sensor_id;sensor_type;location;lat;lon;timestamp;temperature;humidity
36800;DHT22;22752;51.960;5.886;2023-07-29T00:01:35;17.90;99.90
36800;DHT22;22752;51.960;5.886;2023-07-29T00:04:01;17.90;99.90
36800;DHT22;22752;51.960;5.886;2023-07-29T00:06:27;17.90;99.90
36800;DHT22;22752;51.960;5.886;2023-07-29T00:08:53;17.80;99.90
36800;DHT22;22752;51.960;5.886;2023-07-29T00:11:19;17.80;99.90
36800;DHT22;22752;51.960;5.886;2023-07-29T00:13:44;17.80;99.90
36800;DHT22;22752;51.960;5.886;2023-07-29T00:16:10;17.80;99.90
36800;DHT22;22752;51.960;5.886;2023-07-29T00:18:36;17.80;99.90
36800;DHT22;22752;51.960;5.886;2023-07-29T00:21:01;17.80;99.90
36800;DHT22;22752;51.960;5.886;2023-07-29T00:23:27;17.80;99.90
36800;DHT22;22752;51.960;5.886;2023-07-29T00:25:53;17.80;99.90
36800;DHT22;22752;51.960;5.886;2023-07-29T00:28:18;17.80;99.90
36800;DHT22;22752;51.960;5.886;2023-07-29T00:30:44;17.80;99.90
36800;DHT22;22752;51.960;5.886;2023-07-29T00:33:10;17.70;99.90
36800;DHT22;22752;51.960;5.886;2023-07-29T00:35:35;17.60;99.90
36800;DHT22;22752;51.960;5.886;2023-07-29T00:38:01;17.50;99.90
36800;DHT22;22752;51.960;5.886;2023-07-29T00:40:28;17.60;99.90
36800;DHT22;22752;51.960;5.886;2023-07-29T00:42:54;17.60;99.90
36800;DHT22;22752;51.960;5.886;2023-07-29T00:45:20;17.50;99.90
36800;DHT22;22752;51.960;5.886;2023-07-29T00:47:46;17.50;99.90
36800;DHT22;22752;51.960;5.886;2023-07-29T00:50:13;17.50;99.90
36800;DHT22;22752;51.960;5.886;2023-07-29T00:52:39;17.40;99.90
36800;DHT22;22752;51.960;5.886;2023-07-29T00:55:05;17.40;99.90
36800;DHT22;22752;51.960;5.886;2023-07-29T00:57:32;17.40;99.90
36800;DHT22;22752;51.960;5.886;2023-07-29T00:59:59;17.40;99.90
36800;DHT22;22752;51.960;5.886;2023-07-29T01:02:25;17.40;99.90
36800;DHT22;22752;51.960;5.886;2023-07-29T01:04:56;17.40;99.90
36800;DHT22;22752;51.960;5.886;2023-07-29T01:07:36;17.50;99.90
36800;DHT22;22752;51.960;5.886;2023-07-29T01:10:11;17.60;99.90
36800;DHT22;22752;51.960;5.886;2023-07-29T01:13:05;17.70;99.90
36800;DHT22;22752;51.960;5.886;2023-07-29T01:16:00;17.80;99.90
36800;DHT22;22752;51.960;5.886;2023-07-29T01:18:31;18.00;99.90
36800;DHT22;22752;51.960;5.886;2023-07-29T01:21:04;18.00;99.90
36800;DHT22;22752;51.960;5.886;2023-07-29T01:23:36;18.10;99.90
36800;DHT22;22752;51.960;5.886;2023-07-29T01:26:03;18.10;99.90
36800;DHT22;22752;51.960;5.886;2023-07-29T01:28:29;18.10;99.90
36800;DHT22;22752;51.960;5.886;2023-07-29T01:31:03;18.10;99.90
36800;DHT22;22752;51.960;5.886;2023-07-29T01:36:21;18.20;99.90
36800;DHT22;22752;51.960;5.886;2023-07-29T01:38:49;18.20;99.90
36800;DHT22;22752;51.960;5.886;2023-07-29T01:41:17;18.20;99.90
36800;DHT22;22752;51.960;5.886;2023-07-29T01:43:43;18.20;99.90
36800;DHT22;22752;51.960;5.886;2023-07-29T01:46:10;18.30;99.90
36800;DHT22;22752;51.960;5.886;2023-07-29T01:48:37;18.30;99.90
36800;DHT22;22752;51.960;5.886;2023-07-29T01:51:03;18.30;99.90
36800;DHT22;22752;51.960;5.886;2023-07-29T01:53:30;18.30;99.90
36800;DHT22;22752;51.960;5.886;2023-07-29T01:55:55;18.30;99.90
36800;DHT22;22752;51.960;5.886;2023-07-29T01:58:22;18.30;99.90
36800;DHT22;22752;51.960;5.886;2023-07-29T02:00:48;18.30;99.90
36800;DHT22;22752;51.960;5.886;2023-07-29T02:03:13;18.40;99.90
36800;DHT22;22752;51.960;5.886;2023-07-29T02:05:39;18.40;99.90
36800;DHT22;22752;51.960;5.886;2023-07-29T02:08:05;18.40;99.90
36800;DHT22;22752;51.960;5.886;2023-07-29T02:10:31;18.50;99.90
36800;DHT22;22752;51.960;5.886;2023-07-29T02:12:57;18.50;99.90
36800;DHT22;22752;51.960;5.886;2023-07-29T02:15:22;18.50;99.90
36800;DHT22;22752;51.960;5.886;2023-07-29T02:17:50;18.60;99.90
36800;DHT22;22752;51.960;5.886;2023-07-29T02:20:17;18.60;99.90
36800;DHT22;22752;51.960;5.886;2023-07-29T02:22:43;18.60;99.90
36800;DHT22;22752;51.960;5.886;2023-07-29T02:25:08;18.70;99.90
36800;DHT22;22752;51.960;5.886;2023-07-29T02:27:35;18.70;99.90
36800;DHT22;22752;51.960;5.886;2023-07-29T02:30:01;18.60;99.90
36800;DHT22;22752;51.960;5.886;2023-07-29T02:32:27;18.60;99.90
36800;DHT22;22752;51.960;5.886;2023-07-29T02:34:53;18.70;99.90
36800;DHT22;22752;51.960;5.886;2023-07-29T02:37:19;18.70;99.90
36800;DHT22;22752;51.960;5.886;2023-07-29T02:39:45;18.70;99.90
36800;DHT22;22752;51.960;5.886;2023-07-29T02:42:11;18.80;99.90
36800;DHT22;22752;51.960;5.886;2023-07-29T02:44:36;18.80;99.90
36800;DHT22;22752;51.960;5.886;2023-07-29T02:47:02;18.80;99.90
36800;DHT22;22752;51.960;5.886;2023-07-29T02:49:28;18.80;99.90
36800;DHT22;22752;51.960;5.886;2023-07-29T02:51:53;18.90;99.90
36800;DHT22;22752;51.960;5.886;2023-07-29T02:54:19;18.90;99.90
36800;DHT22;22752;51.960;5.886;2023-07-29T02:56:45;18.90;99.90
36800;DHT22;22752;51.960;5.886;2023-07-29T02:59:10;18.80;99.90
36800;DHT22;22752;51.960;5.886;2023-07-29T03:01:36;18.90;99.90
36800;DHT22;22752;51.960;5.886;2023-07-29T03:04:02;18.80;99.90
36800;DHT22;22752;51.960;5.886;2023-07-29T03:06:27;18.80;99.90
36800;DHT22;22752;51.960;5.886;2023-07-29T03:08:53;18.80;99.90
36800;DHT22;22752;51.960;5.886;2023-07-29T03:11:19;18.80;99.90
36800;DHT22;22752;51.960;5.886;2023-07-29T03:13:44;18.80;99.90
36800;DHT22;22752;51.960;5.886;2023-07-29T03:16:12;18.70;99.90
36800;DHT22;22752;51.960;5.886;2023-07-29T03:18:38;18.70;99.90
36800;DHT22;22752;51.960;5.886;2023-07-29T03:21:04;18.70;99.90
36800;DHT22;22752;51.960;5.886;2023-07-29T03:23:31;18.70;99.90
36800;DHT22;22752;51.960;5.886;2023-07-29T03:25:58;18.70;99.90
36800;DHT22;22752;51.960;5.886;2023-07-29T03:28:27;18.70;99.90
36800;DHT22;22752;51.960;5.886;2023-07-29T03:30:56;18.70;99.90
36800;DHT22;22752;51.960;5.886;2023-07-29T03:33:23;18.70;99.90
36800;DHT22;22752;51.960;5.886;2023-07-29T03:35:49;18.60;99.90
36800;DHT22;22752;51.960;5.886;2023-07-29T03:38:15;18.60;99.90
36800;DHT22;22752;51.960;5.886;2023-07-29T03:40:41;18.50;99.90
36800;DHT22;22752;51.960;5.886;2023-07-29T03:43:07;18.50;99.90
36800;DHT22;22752;51.960;5.886;2023-07-29T03:45:34;18.50;99.90
36800;DHT22;22752;51.960;5.886;2023-07-29T03:48:00;18.40;99.90
36800;DHT22;22752;51.960;5.886;2023-07-29T03:50:26;18.40;99.90
36800;DHT22;22752;51.960;5.886;2023-07-29T03:52:52;18.30;99.90
36800;DHT22;22752;51.960;5.886;2023-07-29T03:55:18;18.20;99.90
36800;DHT22;22752;51.960;5.886;2023-07-29T03:57:43;18.20;99.90
36800;DHT22;22752;51.960;5.886;2023-07-29T04:00:09;18.10;99.90
36800;DHT22;22752;51.960;5.886;2023-07-29T04:02:36;18.20;99.90
36800;DHT22;22752;51.960;5.886;2023-07-29T04:05:05;18.10;99.90
36800;DHT22;22752;51.960;5.886;2023-07-29T04:07:31;18.10;99.90
36800;DHT22;22752;51.960;5.886;2023-07-29T04:09:57;18.00;99.90
36800;DHT22;22752;51.960;5.886;2023-07-29T04:12:23;18.00;99.90
36800;DHT22;22752;51.960;5.886;2023-07-29T04:14:49;18.00;99.90
36800;DHT22;22752;51.960;5.886;2023-07-29T04:17:15;18.00;99.90
36800;DHT22;22752;51.960;5.886;2023-07-29T04:19:41;18.00;99.90
36800;DHT22;22752;51.960;5.886;2023-07-29T04:22:06;18.00;99.90
36800;DHT22;22752;51.960;5.886;2023-07-29T04:24:32;18.00;99.90
36800;DHT22;22752;51.960;5.886;2023-07-29T04:26:58;17.90;99.90
36800;DHT22;22752;51.960;5.886;2023-07-29T04:29:23;17.90;99.90
36800;DHT22;22752;51.960;5.886;2023-07-29T04:31:50;17.90;99.90
36800;DHT22;22752;51.960;5.886;2023-07-29T04:34:17;17.90;99.90
36800;DHT22;22752;51.960;5.886;2023-07-29T04:36:43;17.90;99.90
36800;DHT22;22752;51.960;5.886;2023-07-29T04:39:09;17.80;99.90
36800;DHT22;22752;51.960;5.886;2023-07-29T04:41:34;17.80;99.90
36800;DHT22;22752;51.960;5.886;2023-07-29T04:44:00;17.80;99.90
36800;DHT22;22752;51.960;5.886;2023-07-29T04:46:26;17.80;99.90
36800;DHT22;22752;51.960;5.886;2023-07-29T04:48:51;17.80;99.90
36800;DHT22;22752;51.960;5.886;2023-07-29T04:51:17;17.90;99.90
36800;DHT22;22752;51.960;5.886;2023-07-29T04:53:43;17.80;99.90
36800;DHT22;22752;51.960;5.886;2023-07-29T04:56:08;17.90;99.90
36800;DHT22;22752;51.960;5.886;2023-07-29T04:58:34;17.90;99.90
36800;DHT22;22752;51.960;5.886;2023-07-29T05:01:01;18.00;99.90
36800;DHT22;22752;51.960;5.886;2023-07-29T05:03:27;18.00;99.90
36800;DHT22;22752;51.960;5.886;2023-07-29T05:05:53;18.00;99.90
36800;DHT22;22752;51.960;5.886;2023-07-29T05:08:21;18.10;99.90
36800;DHT22;22752;51.960;5.886;2023-07-29T05:10:50;18.10;99.90
36800;DHT22;22752;51.960;5.886;2023-07-29T05:13:17;18.20;99.90
36800;DHT22;22752;51.960;5.886;2023-07-29T05:15:43;18.20;99.90
36800;DHT22;22752;51.960;5.886;2023-07-29T05:18:08;18.20;99.90
36800;DHT22;22752;51.960;5.886;2023-07-29T05:20:34;18.30;99.90
36800;DHT22;22752;51.960;5.886;2023-07-29T05:23:00;18.40;99.90
36800;DHT22;22752;51.960;5.886;2023-07-29T05:25:26;18.50;99.90
36800;DHT22;22752;51.960;5.886;2023-07-29T05:27:52;18.50;99.90
36800;DHT22;22752;51.960;5.886;2023-07-29T05:30:18;18.60;99.90
36800;DHT22;22752;51.960;5.886;2023-07-29T05:32:43;18.60;99.90
36800;DHT22;22752;51.960;5.886;2023-07-29T05:35:09;18.60;99.90
36800;DHT22;22752;51.960;5.886;2023-07-29T05:37:38;18.70;99.90
36800;DHT22;22752;51.960;5.886;2023-07-29T05:40:05;18.70;99.90
36800;DHT22;22752;51.960;5.886;2023-07-29T05:42:32;18.70;99.90
36800;DHT22;22752;51.960;5.886;2023-07-29T05:44:58;18.60;99.90
36800;DHT22;22752;51.960;5.886;2023-07-29T05:47:24;18.60;99.90
36800;DHT22;22752;51.960;5.886;2023-07-29T05:49:49;18.60;99.90
36800;DHT22;22752;51.960;5.886;2023-07-29T05:52:15;18.60;99.90
36800;DHT22;22752;51.960;5.886;2023-07-29T05:54:41;18.70;99.90
36800;DHT22;22752;51.960;5.886;2023-07-29T05:57:09;18.70;99.90
36800;DHT22;22752;51.960;5.886;2023-07-29T05:59:35;18.70;99.90
36800;DHT22;22752;51.960;5.886;2023-07-29T06:02:00;18.80;99.90
36800;DHT22;22752;51.960;5.886;2023-07-29T06:04:26;18.90;99.90
36800;DHT22;22752;51.960;5.886;2023-07-29T06:06:52;19.00;99.90
36800;DHT22;22752;51.960;5.886;2023-07-29T06:09:18;19.20;99.90
36800;DHT22;22752;51.960;5.886;2023-07-29T06:11:43;19.30;99.90
36800;DHT22;22752;51.960;5.886;2023-07-29T06:14:09;19.30;99.90
36800;DHT22;22752;51.960;5.886;2023-07-29T06:16:34;19.30;99.90
36800;DHT22;22752;51.960;5.886;2023-07-29T06:19:00;19.50;99.90
36800;DHT22;22752;51.960;5.886;2023-07-29T06:21:26;20.10;99.90
36800;DHT22;22752;51.960;5.886;2023-07-29T06:23:51;21.30;99.90
36800;DHT22;22752;51.960;5.886;2023-07-29T06:26:17;22.40;99.90
36800;DHT22;22752;51.960;5.886;2023-07-29T06:28:43;23.30;99.90
36800;DHT22;22752;51.960;5.886;2023-07-29T06:31:08;23.80;99.90
36800;DHT22;22752;51.960;5.886;2023-07-29T06:33:34;24.20;99.90
36800;DHT22;22752;51.960;5.886;2023-07-29T06:35:59;24.30;99.90
36800;DHT22;22752;51.960;5.886;2023-07-29T06:38:25;24.60;99.90
36800;DHT22;22752;51.960;5.886;2023-07-29T06:40:51;24.80;99.90
36800;DHT22;22752;51.960;5.886;2023-07-29T06:43:17;25.00;99.90
36800;DHT22;22752;51.960;5.886;2023-07-29T06:45:43;25.00;99.90
36800;DHT22;22752;51.960;5.886;2023-07-29T06:48:09;24.70;99.90
36800;DHT22;22752;51.960;5.886;2023-07-29T06:50:34;24.30;99.90
36800;DHT22;22752;51.960;5.886;2023-07-29T06:53:00;24.60;99.90
36800;DHT22;22752;51.960;5.886;2023-07-29T06:55:26;24.80;99.90
36800;DHT22;22752;51.960;5.886;2023-07-29T06:57:51;24.80;99.90
36800;DHT22;22752;51.960;5.886;2023-07-29T07:00:17;24.90;99.90
36800;DHT22;22752;51.960;5.886;2023-07-29T07:02:43;24.80;99.90
36800;DHT22;22752;51.960;5.886;2023-07-29T07:05:09;24.50;99.90
36800;DHT22;22752;51.960;5.886;2023-07-29T07:07:34;24.40;99.90
36800;DHT22;22752;51.960;5.886;2023-07-29T07:10:00;24.40;99.90
36800;DHT22;22752;51.960;5.886;2023-07-29T07:12:26;24.50;99.90
36800;DHT22;22752;51.960;5.886;2023-07-29T07:14:51;24.90;99.90
36800;DHT22;22752;51.960;5.886;2023-07-29T07:17:17;25.40;99.90
36800;DHT22;22752;51.960;5.886;2023-07-29T07:19:43;25.30;99.90
36800;DHT22;22752;51.960;5.886;2023-07-29T07:22:09;25.10;99.90
36800;DHT22;22752;51.960;5.886;2023-07-29T07:24:35;25.30;99.90
36800;DHT22;22752;51.960;5.886;2023-07-29T07:27:01;25.40;99.90
36800;DHT22;22752;51.960;5.886;2023-07-29T07:29:27;25.10;99.90
36800;DHT22;22752;51.960;5.886;2023-07-29T07:31:53;24.70;99.90
36800;DHT22;22752;51.960;5.886;2023-07-29T07:34:22;24.30;99.90
36800;DHT22;22752;51.960;5.886;2023-07-29T07:36:48;24.10;99.90
36800;DHT22;22752;51.960;5.886;2023-07-29T07:39:14;24.00;99.90
36800;DHT22;22752;51.960;5.886;2023-07-29T07:41:41;24.20;99.90
36800;DHT22;22752;51.960;5.886;2023-07-29T07:44:07;24.40;99.90
36800;DHT22;22752;51.960;5.886;2023-07-29T07:46:32;24.20;99.90
36800;DHT22;22752;51.960;5.886;2023-07-29T07:48:58;24.10;99.90
36800;DHT22;22752;51.960;5.886;2023-07-29T07:51:24;23.90;99.90
36800;DHT22;22752;51.960;5.886;2023-07-29T07:53:49;23.80;99.90
36800;DHT22;22752;51.960;5.886;2023-07-29T07:56:15;23.60;99.90
36800;DHT22;22752;51.960;5.886;2023-07-29T07:58:41;23.40;99.90
36800;DHT22;22752;51.960;5.886;2023-07-29T08:01:08;23.70;99.90
36800;DHT22;22752;51.960;5.886;2023-07-29T08:03:35;23.80;99.90
36800;DHT22;22752;51.960;5.886;2023-07-29T08:06:01;23.90;99.90
36800;DHT22;22752;51.960;5.886;2023-07-29T08:08:27;23.70;99.90
36800;DHT22;22752;51.960;5.886;2023-07-29T08:10:53;23.30;99.90
36800;DHT22;22752;51.960;5.886;2023-07-29T08:13:20;22.90;99.90
36800;DHT22;22752;51.960;5.886;2023-07-29T08:15:47;22.60;99.90
36800;DHT22;22752;51.960;5.886;2023-07-29T08:18:13;22.40;99.90
36800;DHT22;22752;51.960;5.886;2023-07-29T08:20:39;22.40;99.90
36800;DHT22;22752;51.960;5.886;2023-07-29T08:23:04;22.40;99.90
36800;DHT22;22752;51.960;5.886;2023-07-29T08:25:30;22.50;99.90
36800;DHT22;22752;51.960;5.886;2023-07-29T08:27:56;22.50;99.90
36800;DHT22;22752;51.960;5.886;2023-07-29T08:30:22;22.50;99.90
36800;DHT22;22752;51.960;5.886;2023-07-29T08:32:47;22.50;99.90
36800;DHT22;22752;51.960;5.886;2023-07-29T08:35:13;22.40;99.90
36800;DHT22;22752;51.960;5.886;2023-07-29T08:37:39;22.30;99.90
36800;DHT22;22752;51.960;5.886;2023-07-29T08:40:05;22.20;99.90
36800;DHT22;22752;51.960;5.886;2023-07-29T08:42:32;22.10;99.90
36800;DHT22;22752;51.960;5.886;2023-07-29T08:45:06;21.90;99.90
36800;DHT22;22752;51.960;5.886;2023-07-29T08:47:33;21.90;99.90
36800;DHT22;22752;51.960;5.886;2023-07-29T08:50:00;22.00;99.90
36800;DHT22;22752;51.960;5.886;2023-07-29T08:52:27;22.10;99.90
36800;DHT22;22752;51.960;5.886;2023-07-29T08:54:54;22.40;99.90
36800;DHT22;22752;51.960;5.886;2023-07-29T08:57:20;22.90;99.90
36800;DHT22;22752;51.960;5.886;2023-07-29T08:59:47;23.40;99.90
36800;DHT22;22752;51.960;5.886;2023-07-29T09:02:13;23.90;99.90
36800;DHT22;22752;51.960;5.886;2023-07-29T09:04:38;24.20;99.90
36800;DHT22;22752;51.960;5.886;2023-07-29T09:07:05;24.10;99.90
36800;DHT22;22752;51.960;5.886;2023-07-29T09:09:32;23.80;99.90
36800;DHT22;22752;51.960;5.886;2023-07-29T09:11:57;23.60;99.90
36800;DHT22;22752;51.960;5.886;2023-07-29T09:14:24;23.40;99.90
36800;DHT22;22752;51.960;5.886;2023-07-29T09:16:49;23.30;99.90
36800;DHT22;22752;51.960;5.886;2023-07-29T09:19:15;23.10;99.90
36800;DHT22;22752;51.960;5.886;2023-07-29T09:21:42;22.90;99.90
36800;DHT22;22752;51.960;5.886;2023-07-29T09:24:08;22.90;99.90
36800;DHT22;22752;51.960;5.886;2023-07-29T09:26:34;23.00;99.90
36800;DHT22;22752;51.960;5.886;2023-07-29T09:29:00;23.10;99.90
36800;DHT22;22752;51.960;5.886;2023-07-29T09:31:27;23.20;99.90
36800;DHT22;22752;51.960;5.886;2023-07-29T09:34:02;23.40;99.90
36800;DHT22;22752;51.960;5.886;2023-07-29T09:36:30;23.60;99.90
36800;DHT22;22752;51.960;5.886;2023-07-29T09:38:57;23.80;99.90
36800;DHT22;22752;51.960;5.886;2023-07-29T09:41:29;23.90;99.90
36800;DHT22;22752;51.960;5.886;2023-07-29T09:44:02;24.00;99.90
36800;DHT22;22752;51.960;5.886;2023-07-29T09:46:34;23.90;99.90
36800;DHT22;22752;51.960;5.886;2023-07-29T09:49:00;23.70;99.90
36800;DHT22;22752;51.960;5.886;2023-07-29T09:51:26;23.60;99.90
36800;DHT22;22752;51.960;5.886;2023-07-29T09:53:52;23.40;99.90
36800;DHT22;22752;51.960;5.886;2023-07-29T09:56:18;23.30;99.90
36800;DHT22;22752;51.960;5.886;2023-07-29T09:58:48;23.30;99.90
36800;DHT22;22752;51.960;5.886;2023-07-29T10:01:15;23.40;99.90
36800;DHT22;22752;51.960;5.886;2023-07-29T10:03:41;23.60;99.90
36800;DHT22;22752;51.960;5.886;2023-07-29T10:06:08;23.80;99.90
36800;DHT22;22752;51.960;5.886;2023-07-29T10:08:34;24.10;99.90
36800;DHT22;22752;51.960;5.886;2023-07-29T10:11:06;24.50;99.90
36800;DHT22;22752;51.960;5.886;2023-07-29T10:13:32;24.80;99.90
36800;DHT22;22752;51.960;5.886;2023-07-29T10:15:59;25.00;99.90
36800;DHT22;22752;51.960;5.886;2023-07-29T10:18:28;25.20;99.90
36800;DHT22;22752;51.960;5.886;2023-07-29T10:20:54;25.50;99.90
36800;DHT22;22752;51.960;5.886;2023-07-29T10:23:22;25.60;99.90
36800;DHT22;22752;51.960;5.886;2023-07-29T10:26:01;25.70;99.90
36800;DHT22;22752;51.960;5.886;2023-07-29T10:28:30;25.80;99.90
36800;DHT22;22752;51.960;5.886;2023-07-29T10:30:56;25.90;99.90
36800;DHT22;22752;51.960;5.886;2023-07-29T10:33:22;25.90;99.90
36800;DHT22;22752;51.960;5.886;2023-07-29T10:35:48;25.60;99.90
36800;DHT22;22752;51.960;5.886;2023-07-29T10:38:15;25.50;99.90
36800;DHT22;22752;51.960;5.886;2023-07-29T10:41:07;25.40;99.90
36800;DHT22;22752;51.960;5.886;2023-07-29T10:43:35;25.20;99.90
36800;DHT22;22752;51.960;5.886;2023-07-29T10:46:21;25.00;99.90
36800;DHT22;22752;51.960;5.886;2023-07-29T10:54:02;25.30;99.90
36800;DHT22;22752;51.960;5.886;2023-07-29T10:56:33;25.30;99.90
36800;DHT22;22752;51.960;5.886;2023-07-29T10:59:22;25.30;99.90
36800;DHT22;22752;51.960;5.886;2023-07-29T11:01:59;25.20;99.90
36800;DHT22;22752;51.960;5.886;2023-07-29T11:04:29;25.10;99.90
36800;DHT22;22752;51.960;5.886;2023-07-29T11:12:42;25.40;99.90
36800;DHT22;22752;51.960;5.886;2023-07-29T11:15:27;25.50;99.90
36800;DHT22;22752;51.960;5.886;2023-07-29T11:17:58;25.40;99.90
36800;DHT22;22752;51.960;5.886;2023-07-29T11:20:30;25.30;99.90
36800;DHT22;22752;51.960;5.886;2023-07-29T11:22:57;25.10;99.90
36800;DHT22;22752;51.960;5.886;2023-07-29T11:25:24;24.80;99.90
36800;DHT22;22752;51.960;5.886;2023-07-29T11:27:56;24.60;99.90
36800;DHT22;22752;51.960;5.886;2023-07-29T11:30:22;24.50;99.90
36800;DHT22;22752;51.960;5.886;2023-07-29T11:32:59;24.20;99.90
36800;DHT22;22752;51.960;5.886;2023-07-29T11:35:25;24.10;99.90
36800;DHT22;22752;51.960;5.886;2023-07-29T11:37:52;24.00;99.90
36800;DHT22;22752;51.960;5.886;2023-07-29T11:40:19;24.00;99.90
36800;DHT22;22752;51.960;5.886;2023-07-29T11:42:46;23.80;99.90
36800;DHT22;22752;51.960;5.886;2023-07-29T11:45:13;23.70;99.90
36800;DHT22;22752;51.960;5.886;2023-07-29T11:47:39;23.60;99.90
36800;DHT22;22752;51.960;5.886;2023-07-29T11:50:07;23.60;99.90
36800;DHT22;22752;51.960;5.886;2023-07-29T11:52:37;23.60;99.90
36800;DHT22;22752;51.960;5.886;2023-07-29T11:55:04;23.40;99.90
36800;DHT22;22752;51.960;5.886;2023-07-29T11:57:32;23.30;99.90
36800;DHT22;22752;51.960;5.886;2023-07-29T11:59:59;23.00;99.90
36800;DHT22;22752;51.960;5.886;2023-07-29T12:02:25;22.70;99.90
36800;DHT22;22752;51.960;5.886;2023-07-29T12:04:52;22.30;99.90
36800;DHT22;22752;51.960;5.886;2023-07-29T12:07:19;22.00;99.90
36800;DHT22;22752;51.960;5.886;2023-07-29T12:09:46;21.70;99.90
36800;DHT22;22752;51.960;5.886;2023-07-29T12:12:12;21.50;99.90
36800;DHT22;22752;51.960;5.886;2023-07-29T12:14:37;21.40;99.90
36800;DHT22;22752;51.960;5.886;2023-07-29T12:17:05;21.20;99.90
36800;DHT22;22752;51.960;5.886;2023-07-29T12:19:32;21.10;99.90
36800;DHT22;22752;51.960;5.886;2023-07-29T12:21:58;20.90;99.90
36800;DHT22;22752;51.960;5.886;2023-07-29T12:24:24;20.90;99.90
36800;DHT22;22752;51.960;5.886;2023-07-29T12:26:51;21.00;99.90
36800;DHT22;22752;51.960;5.886;2023-07-29T12:29:19;21.20;99.90
36800;DHT22;22752;51.960;5.886;2023-07-29T12:31:48;21.40;99.90
36800;DHT22;22752;51.960;5.886;2023-07-29T12:34:18;21.60;99.90
36800;DHT22;22752;51.960;5.886;2023-07-29T12:36:47;21.70;99.90
36800;DHT22;22752;51.960;5.886;2023-07-29T12:39:20;21.70;99.90
36800;DHT22;22752;51.960;5.886;2023-07-29T12:41:50;21.70;99.90
36800;DHT22;22752;51.960;5.886;2023-07-29T12:44:16;21.80;99.90
36800;DHT22;22752;51.960;5.886;2023-07-29T12:46:42;21.80;99.90
36800;DHT22;22752;51.960;5.886;2023-07-29T12:49:08;21.90;99.90
36800;DHT22;22752;51.960;5.886;2023-07-29T12:51:34;22.10;99.90
36800;DHT22;22752;51.960;5.886;2023-07-29T12:54:00;22.40;99.90
36800;DHT22;22752;51.960;5.886;2023-07-29T12:56:26;22.60;99.90
36800;DHT22;22752;51.960;5.886;2023-07-29T12:58:52;22.90;99.90
36800;DHT22;22752;51.960;5.886;2023-07-29T13:01:18;23.00;99.90
36800;DHT22;22752;51.960;5.886;2023-07-29T13:03:44;23.30;99.90
36800;DHT22;22752;51.960;5.886;2023-07-29T13:06:10;23.40;99.90
36800;DHT22;22752;51.960;5.886;2023-07-29T13:08:35;23.60;99.90
36800;DHT22;22752;51.960;5.886;2023-07-29T13:11:01;23.80;99.90
36800;DHT22;22752;51.960;5.886;2023-07-29T13:13:27;23.90;99.90
36800;DHT22;22752;51.960;5.886;2023-07-29T13:15:53;24.00;99.90
36800;DHT22;22752;51.960;5.886;2023-07-29T13:18:18;24.00;99.90
36800;DHT22;22752;51.960;5.886;2023-07-29T13:20:44;24.00;99.90
36800;DHT22;22752;51.960;5.886;2023-07-29T13:23:09;24.00;99.90
36800;DHT22;22752;51.960;5.886;2023-07-29T13:25:35;24.20;99.90
36800;DHT22;22752;51.960;5.886;2023-07-29T13:28:01;24.20;99.90
36800;DHT22;22752;51.960;5.886;2023-07-29T13:30:26;24.30;99.90
36800;DHT22;22752;51.960;5.886;2023-07-29T13:32:52;24.20;99.90
36800;DHT22;22752;51.960;5.886;2023-07-29T13:35:18;24.20;99.90
36800;DHT22;22752;51.960;5.886;2023-07-29T13:37:44;24.10;99.90
36800;DHT22;22752;51.960;5.886;2023-07-29T13:40:09;24.20;99.90
36800;DHT22;22752;51.960;5.886;2023-07-29T13:42:35;24.10;99.90
36800;DHT22;22752;51.960;5.886;2023-07-29T13:45:02;24.00;99.90
36800;DHT22;22752;51.960;5.886;2023-07-29T13:47:27;24.20;99.90
36800;DHT22;22752;51.960;5.886;2023-07-29T13:49:53;24.30;99.90
36800;DHT22;22752;51.960;5.886;2023-07-29T13:52:19;24.20;99.90
36800;DHT22;22752;51.960;5.886;2023-07-29T13:54:44;24.30;99.90
36800;DHT22;22752;51.960;5.886;2023-07-29T13:57:10;24.30;99.90
36800;DHT22;22752;51.960;5.886;2023-07-29T13:59:36;24.30;99.90
36800;DHT22;22752;51.960;5.886;2023-07-29T14:02:05;24.40;99.90
36800;DHT22;22752;51.960;5.886;2023-07-29T14:04:31;24.50;99.90
36800;DHT22;22752;51.960;5.886;2023-07-29T14:06:57;24.40;99.90
36800;DHT22;22752;51.960;5.886;2023-07-29T14:09:23;24.30;99.90
36800;DHT22;22752;51.960;5.886;2023-07-29T14:11:49;24.20;99.90
36800;DHT22;22752;51.960;5.886;2023-07-29T14:14:15;24.20;99.90
36800;DHT22;22752;51.960;5.886;2023-07-29T14:16:40;24.20;99.90
36800;DHT22;22752;51.960;5.886;2023-07-29T14:19:06;24.10;99.90
36800;DHT22;22752;51.960;5.886;2023-07-29T14:21:32;24.10;99.90
36800;DHT22;22752;51.960;5.886;2023-07-29T14:23:57;24.20;99.90
36800;DHT22;22752;51.960;5.886;2023-07-29T14:26:23;24.20;99.90
36800;DHT22;22752;51.960;5.886;2023-07-29T14:28:49;24.30;99.90
36800;DHT22;22752;51.960;5.886;2023-07-29T14:31:15;24.20;99.90
36800;DHT22;22752;51.960;5.886;2023-07-29T14:33:43;24.30;99.90
36800;DHT22;22752;51.960;5.886;2023-07-29T14:36:08;24.50;99.90
36800;DHT22;22752;51.960;5.886;2023-07-29T14:38:35;24.50;99.90
36800;DHT22;22752;51.960;5.886;2023-07-29T14:41:01;24.60;99.90
36800;DHT22;22752;51.960;5.886;2023-07-29T14:43:26;24.60;99.90
36800;DHT22;22752;51.960;5.886;2023-07-29T14:45:52;24.70;99.90
36800;DHT22;22752;51.960;5.886;2023-07-29T14:48:17;24.80;99.90
36800;DHT22;22752;51.960;5.886;2023-07-29T14:50:43;24.70;99.90
36800;DHT22;22752;51.960;5.886;2023-07-29T14:53:10;24.60;99.90
36800;DHT22;22752;51.960;5.886;2023-07-29T14:55:37;24.50;99.90
36800;DHT22;22752;51.960;5.886;2023-07-29T14:58:02;24.50;99.90
36800;DHT22;22752;51.960;5.886;2023-07-29T15:00:28;24.60;99.90
36800;DHT22;22752;51.960;5.886;2023-07-29T15:02:53;24.60;99.90
36800;DHT22;22752;51.960;5.886;2023-07-29T15:05:19;24.60;99.90
36800;DHT22;22752;51.960;5.886;2023-07-29T15:07:45;24.50;99.90
36800;DHT22;22752;51.960;5.886;2023-07-29T15:10:13;24.50;99.90
36800;DHT22;22752;51.960;5.886;2023-07-29T15:12:39;24.50;99.90
36800;DHT22;22752;51.960;5.886;2023-07-29T15:15:05;24.40;99.90
36800;DHT22;22752;51.960;5.886;2023-07-29T15:17:31;24.40;99.90
36800;DHT22;22752;51.960;5.886;2023-07-29T15:19:57;24.30;99.90
36800;DHT22;22752;51.960;5.886;2023-07-29T15:22:22;24.30;99.90
36800;DHT22;22752;51.960;5.886;2023-07-29T15:24:48;24.20;99.90
36800;DHT22;22752;51.960;5.886;2023-07-29T15:27:14;24.20;99.90
36800;DHT22;22752;51.960;5.886;2023-07-29T15:29:39;24.20;99.90
36800;DHT22;22752;51.960;5.886;2023-07-29T15:32:05;24.30;99.90
36800;DHT22;22752;51.960;5.886;2023-07-29T15:34:31;24.30;99.90
36800;DHT22;22752;51.960;5.886;2023-07-29T15:37:00;24.40;99.90
36800;DHT22;22752;51.960;5.886;2023-07-29T15:39:26;24.30;99.90
36800;DHT22;22752;51.960;5.886;2023-07-29T15:41:51;24.20;99.90